Time;durP1;ratioP1;P1;durP2;ratioP2;P2;SDS_P1;SDS_P2;PMS_P1;PMS_P2;Temp;Humidity;BMP_temperature;BMP_pressure;BME280_temperature;BME280_humidity;BME280_pressure;Samples;Min_cycle;Max_cycle;Signal;HPM_P1;HPM_P2
2021/03/01 00:00:41;;;;;;;32.83;19.82;;;;;;;2.16;79.66;102007.33;2069210;85;21318;-87
2021/03/01 00:03:42;;;;;;;32.03;18.87;;;;;;;2.17;79.58;102011.67;2066329;85;21140;-87
2021/03/01 00:06:44;;;;;;;34.65;19.15;;;;;;;2.17;79.81;102012.52;2065627;85;21112;-86
2021/03/01 00:09:45;;;;;;;34.35;19.30;;;;;;;2.17;79.86;102003.34;2067144;84;21609;-87
2021/03/01 00:12:47;;;;;;;34.60;19.00;;;;;;;2.14;79.80;102017.01;2068723;85;21144;-87
2021/03/01 00:15:50;;;;;;;36.03;19.80;;;;;;;2.17;79.84;102009.05;2072020;85;21180;-85
2021/03/01 00:18:52;;;;;;;34.33;18.30;;;;;;;2.20;79.69;102020.70;2069915;85;21194;-87
2021/03/01 00:21:53;;;;;;;35.63;19.30;;;;;;;2.22;79.66;102031.51;2065711;85;21150;-87
2021/03/01 00:24:55;;;;;;;29.75;17.25;;;;;;;2.24;79.68;102025.72;2069643;85;21596;-87
2021/03/01 00:27:56;;;;;;;29.18;17.42;;;;;;;2.28;79.72;102037.37;2072668;85;21624;-86
2021/03/01 00:30:58;;;;;;;30.50;17.57;;;;;;;2.29;79.63;102053.50;2068598;85;21189;-85
2021/03/01 00:33:59;;;;;;;27.95;16.20;;;;;;;2.31;79.76;102060.81;2066547;85;21565;-86
2021/03/01 00:37:01;;;;;;;29.90;16.65;;;;;;;2.31;79.59;102066.92;2067512;85;21555;-86
2021/03/01 00:40:05;;;;;;;30.72;17.45;;;;;;;2.32;79.60;102065.16;2068928;85;21231;-86
2021/03/01 00:43:07;;;;;;;28.67;17.25;;;;;;;2.35;79.62;102055.39;2067723;85;21160;-86
2021/03/01 00:46:08;;;;;;;29.75;17.42;;;;;;;2.38;79.58;102053.09;2067855;85;21148;-85
2021/03/01 00:49:10;;;;;;;28.10;17.80;;;;;;;2.36;79.62;102046.59;2070516;85;21113;-86
2021/03/01 00:52:11;;;;;;;30.35;17.32;;;;;;;2.33;79.57;102058.98;2066000;85;21176;-85
2021/03/01 00:55:14;;;;;;;28.35;16.87;;;;;;;2.30;79.59;102050.80;2069380;85;21130;-86
2021/03/01 00:58:17;;;;;;;29.72;17.12;;;;;;;2.28;79.63;102043.48;2069496;84;21735;-86
2021/03/01 01:01:18;;;;;;;26.40;16.02;;;;;;;2.27;79.68;102039.61;2064464;85;21211;-86
2021/03/01 01:04:20;;;;;;;26.37;15.83;;;;;;;2.28;79.79;102028.20;2070372;85;21150;-86
2021/03/01 01:07:22;;;;;;;26.70;15.95;;;;;;;2.26;79.78;102026.98;2070885;85;21139;-87
2021/03/01 01:10:24;;;;;;;29.40;17.40;;;;;;;2.27;79.90;102025.20;2070744;85;21112;-86
2021/03/01 01:13:26;;;;;;;28.35;16.70;;;;;;;2.27;79.78;102026.52;2069174;85;21142;-85
2021/03/01 01:16:27;;;;;;;30.12;16.30;;;;;;;2.32;79.90;102033.72;2065926;85;21200;-87
2021/03/01 01:19:29;;;;;;;28.12;17.32;;;;;;;2.32;80.03;102031.94;2069264;85;21108;-86
2021/03/01 01:22:30;;;;;;;30.45;17.35;;;;;;;2.32;79.82;102033.72;2045514;85;21492;-86
2021/03/01 01:25:32;;;;;;;31.75;17.80;;;;;;;2.31;79.83;102032.00;2045444;85;21096;-87
2021/03/01 01:28:34;;;;;;;32.58;17.17;;;;;;;2.33;79.93;102034.09;2069884;85;21103;-87
2021/03/01 01:31:35;;;;;;;34.35;18.77;;;;;;;2.35;79.92;102023.95;2068640;85;21165;-88
2021/03/01 01:34:37;;;;;;;27.93;16.80;;;;;;;2.39;79.81;102020.72;2066085;85;21634;-87
2021/03/01 01:37:39;;;;;;;32.48;17.82;;;;;;;2.41;80.08;102030.22;2067232;85;21624;-86
2021/03/01 01:40:41;;;;;;;27.17;16.62;;;;;;;2.41;79.75;102027.60;2068462;84;21126;-86
2021/03/01 01:43:42;;;;;;;29.50;17.30;;;;;;;2.40;80.06;102026.37;2070167;85;21122;-87
2021/03/01 01:46:44;;;;;;;29.82;16.75;;;;;;;2.39;79.83;102032.52;2045342;85;21140;-85
2021/03/01 01:49:45;;;;;;;30.65;18.37;;;;;;;2.40;79.83;102034.23;2071121;85;21183;-85
2021/03/01 01:52:50;;;;;;;33.53;18.23;;;;;;;2.40;79.76;102031.62;2069252;85;21492;-87
2021/03/01 01:55:52;;;;;;;30.97;18.80;;;;;;;2.40;80.01;102030.30;2070306;85;21627;-86
2021/03/01 01:58:54;;;;;;;28.42;17.42;;;;;;;2.37;79.80;102027.36;2066039;85;21117;-87
2021/03/01 02:01:57;;;;;;;33.30;18.50;;;;;;;2.36;79.98;102025.64;2068278;84;21155;-86
2021/03/01 02:05:03;;;;;;;30.50;16.40;;;;;;;2.37;79.91;102021.27;2068476;85;21144;-86
2021/03/01 02:08:22;;;;;;;29.30;16.42;;;;;;;2.37;79.88;102029.98;2070283;85;21235;-87
2021/03/01 02:11:41;;;;;;;29.48;17.17;;;;;;;2.39;79.89;102024.22;2069911;85;21146;-86
2021/03/01 02:15:25;;;;;;;29.20;17.25;;;;;;;2.40;79.87;102018.52;2059248;85;21176;-87
2021/03/01 02:18:26;;;;;;;30.88;17.25;;;;;;;2.47;79.89;102019.47;2068323;85;21140;-87
2021/03/01 02:21:28;;;;;;;31.30;17.98;;;;;;;2.50;79.75;102015.02;2071146;84;21143;-87
2021/03/01 02:24:35;;;;;;;30.92;17.85;;;;;;;2.52;79.65;102018.42;2066908;85;21200;-86
2021/03/01 02:27:48;;;;;;;30.72;16.23;;;;;;;2.54;79.59;102020.06;2076916;84;21128;-86
2021/03/01 02:30:55;;;;;;;27.65;15.78;;;;;;;2.58;79.55;101998.02;2088435;84;21193;-86
2021/03/01 02:33:59;;;;;;;30.52;17.30;;;;;;;2.61;79.55;101997.04;2088598;84;21248;-86
2021/03/01 02:37:06;;;;;;;26.00;15.90;;;;;;;2.67;79.53;101996.75;2059706;84;21618;-85
2021/03/01 02:40:10;;;;;;;25.90;16.15;;;;;;;2.69;79.49;101994.92;2085071;84;21139;-85
2021/03/01 02:43:12;;;;;;;26.62;16.05;;;;;;;2.71;79.41;102001.42;2089883;84;21185;-86
2021/03/01 02:46:14;;;;;;;26.33;14.70;;;;;;;2.72;79.40;101998.71;2089078;84;21107;-87
2021/03/01 02:49:17;;;;;;;26.12;15.58;;;;;;;2.74;79.37;101992.09;2082647;84;21155;-87
2021/03/01 02:52:20;;;;;;;26.65;14.93;;;;;;;2.76;79.29;101992.86;2085348;84;21247;-86
2021/03/01 02:55:24;;;;;;;25.15;15.30;;;;;;;2.77;79.24;102001.13;2082532;84;21094;-88
2021/03/01 02:58:29;;;;;;;26.95;16.00;;;;;;;2.79;79.25;102005.39;2085737;84;21189;-88
2021/03/01 03:01:33;;;;;;;26.40;15.83;;;;;;;2.79;79.18;102000.58;2083777;84;21148;-88
2021/03/01 03:04:37;;;;;;;24.30;15.35;;;;;;;2.77;79.23;101992.80;2084717;84;21717;-87
2021/03/01 03:07:42;;;;;;;24.27;14.53;;;;;;;2.72;79.08;101993.94;2081036;84;21116;-88
2021/03/01 03:10:47;;;;;;;26.25;14.98;;;;;;;2.71;79.13;101988.31;2086379;84;21120;-86
2021/03/01 03:13:50;;;;;;;22.85;14.63;;;;;;;2.68;79.17;101994.08;2059516;84;21175;-87
2021/03/01 03:16:55;;;;;;;24.72;14.00;;;;;;;2.66;79.14;101994.59;2080522;84;21120;-87
2021/03/01 03:19:56;;;;;;;26.15;14.80;;;;;;;2.69;79.25;101995.77;2083351;83;21733;-87
2021/03/01 03:22:57;;;;;;;24.52;13.90;;;;;;;2.71;79.19;102001.42;2080927;84;21174;-86
2021/03/01 03:25:59;;;;;;;25.02;14.25;;;;;;;2.71;79.27;101999.64;2085527;84;21191;-87
2021/03/01 03:29:01;;;;;;;23.57;14.50;;;;;;;2.66;79.14;102002.46;2067938;84;21136;-87
2021/03/01 03:32:03;;;;;;;25.32;14.28;;;;;;;2.66;79.24;101994.59;2066681;85;21103;-87
2021/03/01 03:35:08;;;;;;;25.77;14.85;;;;;;;2.66;79.22;101995.91;2068448;85;21174;-88
2021/03/01 03:38:18;;;;;;;27.25;14.63;;;;;;;2.68;79.27;101993.23;2067557;85;21089;-88
2021/03/01 03:41:21;;;;;;;23.60;14.68;;;;;;;2.65;79.19;101994.22;2067609;85;21512;-88
2021/03/01 03:44:23;;;;;;;23.98;14.63;;;;;;;2.64;79.24;101988.56;2068106;84;21176;-87
2021/03/01 03:47:26;;;;;;;22.77;14.20;;;;;;;2.63;79.19;101989.97;2070940;85;21175;-87
2021/03/01 03:50:30;;;;;;;27.10;15.50;;;;;;;2.59;79.28;101991.88;2068464;84;21199;-87
2021/03/01 03:53:36;;;;;;;26.52;14.33;;;;;;;2.59;79.33;101997.56;2066104;85;21152;-88
2021/03/01 03:56:39;;;;;;;26.77;15.70;;;;;;;2.62;79.35;102010.55;2068163;85;21159;-87
2021/03/01 03:59:43;;;;;;;26.55;15.15;;;;;;;2.64;79.40;102016.55;2067417;84;21223;-87
2021/03/01 04:02:45;;;;;;;24.20;15.50;;;;;;;2.62;79.31;102002.69;2070972;85;21547;-87
2021/03/01 04:05:51;;;;;;;28.83;17.17;;;;;;;2.61;79.30;102011.45;2068332;85;21628;-86
2021/03/01 04:08:55;;;;;;;24.37;15.48;;;;;;;2.60;79.34;102006.67;2068641;85;21115;-88
2021/03/01 04:12:00;;;;;;;23.35;14.58;;;;;;;2.52;79.26;102002.23;2067377;85;21203;-87
2021/03/01 04:15:03;;;;;;;31.65;15.38;;;;;;;2.49;79.40;102002.38;2068365;85;21164;-87
2021/03/01 04:18:06;;;;;;;25.05;15.03;;;;;;;2.47;79.44;102000.27;2068854;85;21148;-87
2021/03/01 04:21:10;;;;;;;25.02;15.60;;;;;;;2.47;79.48;101993.72;2068262;85;21192;-86
2021/03/01 04:24:14;;;;;;;24.35;15.38;;;;;;;2.48;79.54;101996.75;2070400;85;21108;-85
2021/03/01 04:27:16;;;;;;;28.17;15.32;;;;;;;2.49;79.50;102005.47;2047226;84;21179;-86
2021/03/01 04:30:19;;;;;;;26.48;15.58;;;;;;;2.54;79.64;102000.88;2087126;84;21184;-86
2021/03/01 04:33:22;;;;;;;27.77;15.48;;;;;;;2.52;79.56;101998.77;2085533;84;21187;-88
2021/03/01 04:36:25;;;;;;;29.32;15.88;;;;;;;2.50;79.63;102001.91;2084831;84;21148;-87
2021/03/01 04:39:27;;;;;;;27.00;16.00;;;;;;;2.46;79.66;102005.98;2083732;84;21152;-87
2021/03/01 04:42:31;;;;;;;25.37;14.87;;;;;;;2.42;79.68;102002.25;2082824;84;21574;-87
2021/03/01 04:45:33;;;;;;;30.70;16.25;;;;;;;2.40;79.76;102002.33;2086309;84;21163;-87
2021/03/01 04:48:36;;;;;;;25.82;15.23;;;;;;;2.38;79.76;101998.08;2087863;84;21115;-87
2021/03/01 04:51:40;;;;;;;24.92;15.55;;;;;;;2.41;79.83;102011.88;2086507;84;21167;-87
2021/03/01 04:54:42;;;;;;;26.23;15.93;;;;;;;2.45;79.81;102007.38;2085444;84;21208;-86
2021/03/01 04:57:44;;;;;;;23.30;15.03;;;;;;;2.45;80.00;102010.00;2083252;84;21127;-86
2021/03/01 05:00:47;;;;;;;28.87;16.02;;;;;;;2.38;79.97;102014.64;2085124;84;21662;-85
2021/03/01 05:03:51;;;;;;;30.02;15.88;;;;;;;2.35;79.94;102010.84;2083067;84;21163;-87
2021/03/01 05:06:57;;;;;;;25.88;15.80;;;;;;;2.32;79.94;102008.37;2081019;84;21169;-87
2021/03/01 05:10:00;;;;;;;26.10;16.00;;;;;;;2.30;80.02;102008.04;2080989;84;21131;-89
2021/03/01 05:13:02;;;;;;;27.80;15.35;;;;;;;2.32;80.12;102008.83;2087653;84;21171;-87
2021/03/01 05:16:03;;;;;;;29.90;14.87;;;;;;;2.39;80.16;102014.17;2086197;84;21216;-87
2021/03/01 05:19:05;;;;;;;27.27;16.40;;;;;;;2.39;80.28;102018.10;2086788;83;21212;-87
2021/03/01 05:22:06;;;;;;;32.50;17.05;;;;;;;2.44;80.22;102017.45;2081460;84;21128;-86
2021/03/01 05:25:09;;;;;;;27.15;17.02;;;;;;;2.45;80.12;102017.86;2080208;84;21100;-85
2021/03/01 05:28:10;;;;;;;31.57;17.75;;;;;;;2.47;80.21;102022.55;2093981;83;21132;-85
2021/03/01 05:31:12;;;;;;;32.85;18.87;;;;;;;2.43;80.06;102015.75;2089239;84;21188;-86
2021/03/01 05:34:14;;;;;;;31.73;17.17;;;;;;;2.39;80.14;102024.22;2093295;84;21173;-86
2021/03/01 05:37:16;;;;;;;31.40;18.62;;;;;;;2.39;80.16;102028.58;2093474;84;21171;-87
2021/03/01 05:40:18;;;;;;;26.12;17.60;;;;;;;2.38;80.25;102030.83;2094194;84;21787;-88
2021/03/01 05:43:26;;;;;;;29.25;17.95;;;;;;;2.41;80.29;102030.22;2094563;84;21267;-86
2021/03/01 05:46:28;;;;;;;31.65;19.27;;;;;;;2.43;80.26;102036.72;2092793;84;21144;-87
2021/03/01 05:49:31;;;;;;;42.45;20.77;;;;;;;2.47;80.29;102035.19;2090196;84;21183;-86
2021/03/01 05:52:35;;;;;;;41.80;21.55;;;;;;;2.49;80.35;102029.89;2092497;84;21124;-86
2021/03/01 05:55:37;;;;;;;37.38;20.45;;;;;;;2.48;80.27;102036.06;2091848;84;21135;-87
2021/03/01 05:58:41;;;;;;;38.00;21.85;;;;;;;2.45;80.25;102044.06;2091228;84;21211;-88
2021/03/01 06:01:44;;;;;;;31.70;19.07;;;;;;;2.43;80.33;102047.20;2095460;84;21654;-89
2021/03/01 06:04:46;;;;;;;38.60;20.85;;;;;;;2.43;80.30;102049.36;2090481;84;21196;-90
2021/03/01 06:07:48;;;;;;;36.45;21.17;;;;;;;2.44;80.42;102047.58;2073044;84;21216;-89
2021/03/01 06:10:52;;;;;;;39.42;22.07;;;;;;;2.46;80.37;102057.55;2090690;84;21109;-89
2021/03/01 06:13:53;;;;;;;42.15;22.82;;;;;;;2.53;80.55;102049.78;2092426;84;21134;-90
2021/03/01 06:17:16;;;;;;;38.63;21.60;;;;;;;2.58;80.47;102053.53;2092632;84;21122;-91
2021/03/01 06:20:23;;;;;;;48.90;25.40;;;;;;;2.59;80.42;102063.95;2091130;84;21147;-90
2021/03/01 06:23:33;;;;;;;45.90;24.50;;;;;;;2.60;80.42;102067.42;2092663;84;21110;-90
2021/03/01 06:26:35;;;;;;;46.95;25.82;;;;;;;2.58;80.55;102063.55;2095831;84;21136;-88
2021/03/01 06:29:51;;;;;;;46.68;24.12;;;;;;;2.57;80.46;102077.58;2094894;83;21586;-88
2021/03/01 06:33:14;;;;;;;55.28;25.50;;;;;;;2.55;80.43;102074.63;2078852;84;21565;-87
2021/03/01 06:36:16;;;;;;;49.75;24.50;;;;;;;2.55;80.49;102087.27;2090546;84;21190;-89
2021/03/01 06:39:30;;;;;;;41.83;23.65;;;;;;;2.56;80.47;102086.38;2089779;84;21562;-87
2021/03/01 06:42:31;;;;;;;49.90;25.37;;;;;;;2.60;80.44;102099.72;2090772;84;21099;-91
2021/03/01 06:45:33;;;;;;;52.50;26.23;;;;;;;2.67;80.51;102094.58;2089314;84;21510;-86
2021/03/01 06:48:34;;;;;;;50.33;26.30;;;;;;;2.68;80.45;102092.38;2089604;84;21107;-89
2021/03/01 06:51:36;;;;;;;51.33;27.67;;;;;;;2.73;80.50;102102.64;2091546;84;21178;-87
2021/03/01 06:54:41;;;;;;;52.93;25.57;;;;;;;2.71;80.36;102089.23;2088008;84;21618;-86
2021/03/01 06:57:41;;;;;;;53.15;26.68;;;;;;;2.71;80.40;102093.17;2119426;82;21169;-88
2021/03/01 07:00:45;;;;;;;51.90;26.00;;;;;;;2.75;80.42;102105.20;2124832;82;21126;-87
2021/03/01 07:03:49;;;;;;;48.48;26.10;;;;;;;2.77;80.39;102106.84;2063872;85;21136;-88
2021/03/01 07:06:54;;;;;;;51.02;26.70;;;;;;;2.83;80.47;102107.03;2093251;84;21126;-92
2021/03/01 07:09:56;;;;;;;48.42;26.82;;;;;;;2.86;80.39;102099.03;2079542;84;21591;-90
2021/03/01 07:12:57;;;;;;;51.88;27.15;;;;;;;2.88;80.27;102102.44;2078181;83;21693;-89
2021/03/01 07:16:00;;;;;;;58.50;29.48;;;;;;;2.88;80.29;102107.22;2082326;84;21159;-89
2021/03/01 07:19:04;;;;;;;51.95;26.57;;;;;;;2.89;80.36;102107.59;2079220;84;21136;-89
2021/03/01 07:22:08;;;;;;;52.03;27.20;;;;;;;2.94;80.33;102106.56;2078422;84;21594;-88
2021/03/01 07:25:13;;;;;;;46.18;26.12;;;;;;;2.95;80.26;102104.31;2077674;84;21151;-89
2021/03/01 07:28:17;;;;;;;50.63;26.60;;;;;;;3.01;80.29;102109.28;2080716;84;21211;-89
2021/03/01 07:31:22;;;;;;;44.70;25.23;;;;;;;3.03;80.27;102108.29;2078579;84;21147;-87
2021/03/01 07:34:25;;;;;;;54.07;26.03;;;;;;;3.06;80.23;102114.70;2054867;84;21699;-89
2021/03/01 07:37:28;;;;;;;41.40;23.80;;;;;;;3.07;80.18;102119.05;2117332;83;21713;-87
2021/03/01 07:40:29;;;;;;;44.30;24.50;;;;;;;3.14;80.20;102122.23;2116856;83;21146;-86
2021/03/01 07:43:39;;;;;;;46.63;25.00;;;;;;;3.17;80.11;102122.09;2116572;83;21189;-86
2021/03/01 07:46:47;;;;;;;50.75;26.37;;;;;;;3.22;80.00;102118.80;2115771;83;21166;-88
2021/03/01 07:49:49;;;;;;;54.48;27.40;;;;;;;3.23;79.91;102123.59;2116566;83;21149;-87
2021/03/01 07:52:51;;;;;;;52.20;26.20;;;;;;;3.26;79.94;102124.29;2115372;83;21103;-86
2021/03/01 07:55:53;;;;;;;56.50;25.32;;;;;;;3.29;79.98;102128.08;2114876;83;21117;-86
2021/03/01 07:59:02;;;;;;;50.23;25.75;;;;;;;3.36;79.98;102128.20;2115742;83;21524;-88
2021/03/01 08:02:23;;;;;;;46.90;24.23;;;;;;;3.37;79.77;102133.83;2115633;83;21191;-88
2021/03/01 08:05:31;;;;;;;45.03;23.67;;;;;;;3.42;79.79;102141.97;2113856;83;21169;-87
2021/03/01 08:08:49;;;;;;;46.65;23.25;;;;;;;3.45;79.67;102137.41;2116763;83;21586;-87
2021/03/01 08:11:50;;;;;;;45.65;23.32;;;;;;;3.44;79.65;102138.34;2115222;83;21686;-87
2021/03/01 08:14:57;;;;;;;44.23;22.77;;;;;;;3.46;79.64;102145.67;2104226;83;21474;-88
2021/03/01 08:18:00;;;;;;;37.83;22.02;;;;;;;3.51;79.60;102145.47;2115579;83;21165;-88
2021/03/01 08:21:02;;;;;;;38.20;21.00;;;;;;;3.54;79.52;102146.16;2114709;83;21202;-87
2021/03/01 08:24:04;;;;;;;39.23;22.25;;;;;;;3.56;79.43;102154.83;2114201;83;21606;-88
2021/03/01 08:27:29;;;;;;;43.00;22.85;;;;;;;3.57;79.31;102155.67;2099596;83;21143;-87
2021/03/01 08:30:35;;;;;;;44.95;24.98;;;;;;;3.58;79.36;102155.62;2102947;83;21702;-86
2021/03/01 08:33:37;;;;;;;38.42;19.40;;;;;;;3.63;79.39;102161.94;2109896;83;21140;-86
2021/03/01 08:36:43;;;;;;;29.32;17.27;;;;;;;3.62;79.09;102161.56;2109638;83;21160;-87
2021/03/01 08:40:00;;;;;;;30.05;17.70;;;;;;;3.59;78.98;102159.93;2112670;83;21153;-87
2021/03/01 08:43:05;;;;;;;38.20;19.65;;;;;;;3.61;78.95;102152.47;2108542;83;21184;-87
2021/03/01 08:46:18;;;;;;;37.75;20.52;;;;;;;3.58;78.88;102158.24;2089214;83;21113;-87
2021/03/01 08:49:23;;;;;;;41.85;19.25;;;;;;;3.62;78.99;102164.19;2109503;83;21119;-88
2021/03/01 08:52:24;;;;;;;33.67;19.37;;;;;;;3.67;78.98;102164.83;2114074;83;21151;-88
2021/03/01 08:55:26;;;;;;;36.68;19.02;;;;;;;3.64;78.72;102162.82;2111824;83;21067;-88
2021/03/01 08:58:39;;;;;;;39.88;19.25;;;;;;;3.67;78.73;102171.86;2110654;83;21616;-88
2021/03/01 09:01:50;;;;;;;29.48;16.40;;;;;;;3.65;78.75;102181.11;2110824;83;21152;-87
2021/03/01 09:05:09;;;;;;;25.08;15.65;;;;;;;3.67;78.52;102177.11;2095286;83;21129;-88
2021/03/01 09:08:11;;;;;;;35.92;19.42;;;;;;;3.69;78.37;102185.74;2114101;83;21551;-89
2021/03/01 09:11:30;;;;;;;36.70;18.27;;;;;;;3.71;78.32;102185.22;2111146;83;21172;-88
2021/03/01 09:14:32;;;;;;;43.05;21.33;;;;;;;3.70;78.20;102192.25;2111592;83;21113;-87
2021/03/01 09:17:33;;;;;;;35.88;20.82;;;;;;;3.69;78.28;102196.25;2104046;83;21112;-88
2021/03/01 09:20:44;;;;;;;28.40;16.70;;;;;;;3.69;78.35;102201.50;2107450;83;21576;-85
2021/03/01 09:23:50;;;;;;;30.15;15.93;;;;;;;3.70;78.36;102190.09;2102919;83;21089;-87
2021/03/01 09:26:51;;;;;;;30.12;15.00;;;;;;;3.64;78.06;102193.02;2110258;83;21178;-85
2021/03/01 09:30:03;;;;;;;33.15;16.80;;;;;;;3.62;78.06;102200.94;2110575;83;21153;-86
2021/03/01 09:33:09;;;;;;;32.42;18.20;;;;;;;3.68;78.15;102180.11;2112648;83;21575;-88
2021/03/01 09:36:12;;;;;;;37.38;18.50;;;;;;;3.73;78.07;102182.07;2097403;83;21104;-85
2021/03/01 09:39:21;;;;;;;34.23;19.55;;;;;;;3.80;78.00;102188.28;2116662;83;21115;-87
2021/03/01 09:42:22;;;;;;;33.40;18.32;;;;;;;3.85;78.16;102188.05;2114052;83;21210;-88
2021/03/01 09:45:24;;;;;;;30.17;17.12;;;;;;;3.91;78.08;102190.38;2111913;83;21139;-86
2021/03/01 09:48:29;;;;;;;30.62;16.52;;;;;;;3.93;77.80;102192.94;2114289;83;21682;-90
2021/03/01 09:51:34;;;;;;;29.05;16.95;;;;;;;3.89;77.51;102197.50;2114709;83;21277;-89
2021/03/01 09:54:37;;;;;;;23.98;14.13;;;;;;;3.85;77.51;102193.77;2111783;82;21115;-87
2021/03/01 09:57:39;;;;;;;31.87;16.42;;;;;;;3.87;77.50;102189.30;2113251;83;21115;-87
2021/03/01 10:00:42;;;;;;;32.55;16.60;;;;;;;3.89;77.57;102185.68;2111546;83;21551;-88
2021/03/01 10:03:49;;;;;;;34.10;17.62;;;;;;;3.89;77.53;102197.50;2114176;83;21149;-86
2021/03/01 10:06:51;;;;;;;32.98;17.60;;;;;;;3.89;77.44;102193.56;2112846;83;21148;-87
2021/03/01 10:09:54;;;;;;;30.27;16.75;;;;;;;3.93;77.49;102198.20;2096513;83;21206;-87
2021/03/01 10:12:56;;;;;;;31.60;16.75;;;;;;;3.93;77.35;102200.35;2112149;83;21616;-86
2021/03/01 10:15:58;;;;;;;27.02;15.05;;;;;;;3.89;77.21;102201.91;2115230;83;21154;-88
2021/03/01 10:19:22;;;;;;;24.75;14.30;;;;;;;3.94;77.27;102205.14;2116691;83;21573;-86
2021/03/01 10:22:23;;;;;;;27.02;15.45;;;;;;;3.93;77.03;102208.23;2114333;83;21241;-88
2021/03/01 10:25:34;;;;;;;27.90;15.38;;;;;;;3.96;77.30;102198.89;2113157;83;21170;-88
2021/03/01 10:28:37;;;;;;;30.75;16.17;;;;;;;4.00;77.08;102200.47;2110584;83;21284;-87
2021/03/01 10:31:39;;;;;;;29.35;17.15;;;;;;;3.99;77.05;102201.37;2117179;83;21129;-87
2021/03/01 10:34:41;;;;;;;30.82;16.17;;;;;;;3.99;77.04;102201.37;2124175;82;21540;-85
2021/03/01 10:38:01;;;;;;;33.58;17.17;;;;;;;4.00;76.90;102197.84;2104036;83;21135;-86
2021/03/01 10:41:19;;;;;;;34.20;17.77;;;;;;;4.02;77.11;102195.97;2115561;83;21148;-91
2021/03/01 10:44:34;;;;;;;30.77;16.73;;;;;;;4.04;77.04;102195.91;2122095;83;21104;-88
2021/03/01 10:47:36;;;;;;;32.63;17.50;;;;;;;4.08;76.96;102195.28;2117844;83;21150;-87
2021/03/01 10:50:38;;;;;;;29.40;16.87;;;;;;;4.11;76.99;102196.02;2114784;83;21111;-88
2021/03/01 10:53:39;;;;;;;33.18;17.27;;;;;;;4.09;76.68;102195.23;2118382;83;21562;-87
2021/03/01 10:56:41;;;;;;;33.98;17.37;;;;;;;4.11;76.80;102197.77;2116726;83;21620;-87
2021/03/01 10:59:44;;;;;;;32.63;16.12;;;;;;;4.10;76.70;102202.17;2115757;83;21139;-87
2021/03/01 11:02:45;;;;;;;30.00;15.13;;;;;;;4.11;76.69;102197.77;2117775;83;21245;-88
2021/03/01 11:05:47;;;;;;;27.93;15.53;;;;;;;4.15;76.65;102198.02;2115440;83;21088;-87
2021/03/01 11:08:49;;;;;;;30.95;16.70;;;;;;;4.18;76.60;102200.50;2096985;83;21144;-88
2021/03/01 11:11:52;;;;;;;30.88;16.87;;;;;;;4.19;76.70;102196.93;2119176;83;21115;-87
2021/03/01 11:14:54;;;;;;;37.70;17.85;;;;;;;4.20;76.53;102202.13;2118025;83;21125;-89
2021/03/01 11:17:55;;;;;;;30.08;16.32;;;;;;;4.19;76.57;102204.81;2116916;83;21123;-86
2021/03/01 11:20:57;;;;;;;35.15;16.75;;;;;;;4.17;76.61;102205.38;2116293;83;21152;-88
2021/03/01 11:23:59;;;;;;;34.73;16.15;;;;;;;4.17;76.47;102201.44;2119546;83;21122;-86
2021/03/01 11:27:01;;;;;;;31.50;16.17;;;;;;;4.22;76.58;102202.91;2114555;83;21152;-89
2021/03/01 11:30:03;;;;;;;29.48;15.50;;;;;;;4.27;76.42;102196.09;2116767;83;21203;-87
2021/03/01 11:33:07;;;;;;;31.15;17.60;;;;;;;4.29;76.42;102194.25;2117828;83;21558;-87
2021/03/01 11:36:09;;;;;;;30.25;16.15;;;;;;;4.30;76.31;102199.04;2115586;83;21171;-89
2021/03/01 11:39:15;;;;;;;36.65;19.07;;;;;;;4.30;76.33;102199.89;2118396;83;21165;-86
2021/03/01 11:42:17;;;;;;;34.03;18.45;;;;;;;4.35;76.35;102203.14;2116121;83;21514;-88
2021/03/01 11:45:18;;;;;;;35.15;18.02;;;;;;;4.37;76.35;102201.30;2118248;83;21158;-88
2021/03/01 11:48:20;;;;;;;32.33;18.70;;;;;;;4.41;76.42;102200.67;2121648;83;21140;-87
2021/03/01 11:51:21;;;;;;;35.92;17.15;;;;;;;4.43;76.31;102190.48;2123493;83;21063;-88
2021/03/01 11:54:23;;;;;;;33.95;17.15;;;;;;;4.40;76.16;102190.63;2106256;83;21128;-87
2021/03/01 11:57:27;;;;;;;33.18;16.80;;;;;;;4.44;76.11;102189.53;2118541;83;21144;-87
2021/03/01 12:00:29;;;;;;;30.25;15.55;;;;;;;4.48;76.18;102183.22;2064533;85;21156;-88
2021/03/01 12:03:31;;;;;;;26.95;16.48;;;;;;;4.53;76.05;102184.75;2093785;84;21187;-88
2021/03/01 12:06:33;;;;;;;33.38;18.42;;;;;;;4.57;75.95;102184.53;2081119;84;21151;-86
2021/03/01 12:09:35;;;;;;;29.87;17.67;;;;;;;4.62;76.06;102175.95;2079965;84;21140;-87
2021/03/01 12:12:39;;;;;;;33.13;17.87;;;;;;;4.68;75.90;102173.47;2083393;84;21187;-87
2021/03/01 12:15:42;;;;;;;36.53;19.98;;;;;;;4.69;75.83;102181.27;2059232;85;21265;-86
2021/03/01 12:18:43;;;;;;;30.70;18.27;;;;;;;4.64;75.62;102175.38;2093762;84;21175;-87
2021/03/01 12:21:45;;;;;;;35.80;18.62;;;;;;;4.67;75.76;102175.69;2094588;84;21076;-86
2021/03/01 12:24:47;;;;;;;29.10;16.67;;;;;;;4.67;75.68;102177.01;2079317;84;21132;-87
2021/03/01 12:27:49;;;;;;;31.93;15.98;;;;;;;4.68;75.67;102170.38;2093319;84;21151;-86
2021/03/01 12:30:50;;;;;;;29.07;16.17;;;;;;;4.72;75.57;102166.64;2055061;84;21143;-86
2021/03/01 12:33:52;;;;;;;36.30;19.67;;;;;;;4.71;75.23;102171.52;2075546;84;21133;-86
2021/03/01 12:36:54;;;;;;;33.40;18.82;;;;;;;4.70;75.39;102163.70;2075415;84;21449;-86
2021/03/01 12:39:56;;;;;;;31.55;18.87;;;;;;;4.72;75.45;102171.05;2077016;84;22320;-86
2021/03/01 12:42:58;;;;;;;42.00;22.02;;;;;;;4.74;75.45;102160.47;2064052;85;21151;-85
2021/03/01 12:46:00;;;;;;;41.45;25.60;;;;;;;4.77;75.40;102163.78;2063105;85;21138;-86
2021/03/01 12:49:01;;;;;;;34.05;19.37;;;;;;;4.73;75.37;102163.57;2064895;85;21218;-87
2021/03/01 12:52:04;;;;;;;34.60;19.32;;;;;;;4.68;75.19;102162.95;2065402;85;21604;-87
2021/03/01 12:55:07;;;;;;;33.80;17.62;;;;;;;4.63;75.46;102159.70;2071834;85;21751;-86
2021/03/01 12:58:10;;;;;;;33.08;17.90;;;;;;;4.63;75.40;102161.02;2068883;85;21192;-87
2021/03/01 13:01:12;;;;;;;37.03;19.20;;;;;;;4.69;75.48;102163.33;2068315;85;21140;-87
2021/03/01 13:04:13;;;;;;;47.10;24.07;;;;;;;4.80;75.46;102162.31;2071771;85;21132;-88
2021/03/01 13:07:15;;;;;;;38.88;22.10;;;;;;;4.88;75.41;102162.77;2068983;84;21543;-86
2021/03/01 13:10:17;;;;;;;37.30;20.12;;;;;;;4.93;75.17;102162.06;2071186;85;21140;-88
2021/03/01 13:13:18;;;;;;;34.90;20.37;;;;;;;4.88;75.15;102153.55;2067899;85;21139;-86
2021/03/01 13:16:20;;;;;;;38.67;19.90;;;;;;;4.89;75.16;102155.24;2065746;85;21646;-87
2021/03/01 13:19:22;;;;;;;40.00;20.55;;;;;;;4.88;75.06;102151.39;2070962;84;21113;-86
2021/03/01 13:22:23;;;;;;;39.88;20.30;;;;;;;4.88;74.97;102147.45;2067211;85;21141;-86
2021/03/01 13:25:25;;;;;;;35.10;19.02;;;;;;;4.87;74.98;102147.05;2068290;84;21124;-86
2021/03/01 13:28:29;;;;;;;32.10;17.77;;;;;;;4.93;75.04;102136.22;2068360;85;21157;-87
2021/03/01 13:31:31;;;;;;;31.90;18.35;;;;;;;4.99;75.04;102136.37;2089518;84;21157;-86
2021/03/01 13:34:33;;;;;;;41.40;19.50;;;;;;;5.06;75.00;102134.63;2095366;84;21586;-86
2021/03/01 13:37:35;;;;;;;33.08;18.60;;;;;;;5.14;75.04;102143.43;2094397;84;21158;-88
2021/03/01 13:40:36;;;;;;;35.68;18.62;;;;;;;5.15;74.73;102138.54;2091916;84;21112;-89
2021/03/01 13:43:38;;;;;;;35.17;18.75;;;;;;;5.14;74.72;102134.22;2091822;84;21623;-86
2021/03/01 13:46:40;;;;;;;37.53;19.82;;;;;;;5.16;74.69;102133.20;2091394;84;21205;-87
2021/03/01 13:49:42;;;;;;;30.62;17.55;;;;;;;5.16;74.60;102133.20;2093876;84;21158;-87
2021/03/01 13:52:43;;;;;;;33.95;18.25;;;;;;;5.15;74.43;102128.02;2094962;84;21182;-86
2021/03/01 13:55:45;;;;;;;29.75;17.90;;;;;;;5.17;74.47;102131.42;2093299;84;21150;-88
2021/03/01 13:58:46;;;;;;;26.25;16.62;;;;;;;5.14;74.48;102130.27;2095794;83;21166;-87
2021/03/01 14:01:48;;;;;;;25.52;16.62;;;;;;;5.12;74.36;102123.80;2090600;84;21151;-88
2021/03/01 14:04:50;;;;;;;29.02;17.27;;;;;;;5.11;74.37;102131.28;2092738;84;21581;-87